< Typhoon 199911 1999 Season Typhoon 199913 >
Typhoon 199912 (TANYA)
General InformationTrack Information on Google MapsDetailed Wind InformationList of All Images || NewsDisaster Info.ResourceGoogle EarthGE AnimationAtom FeedGeoJSON
Detalied Best Track (Time Zone = UTC)
Year Month Day Hour Lat. Long. Pressure (hPa) Wind (kt) Class Image Chart
1999 8 19 06 29.5 180.1 1018 0 7 Image Chart
1999 8 19 12 29.6 179.0 1016 0 2 Image Chart
1999 8 19 18 29.7 177.8 1016 0 2 Image Chart
1999 8 20 00 29.8 176.4 1014 0 2 Image Chart
1999 8 20 06 30.0 175.0 1010 35 3 Image Chart
1999 8 20 12 30.2 173.4 1010 35 3 Image Chart
1999 8 20 18 30.6 171.7 1008 40 3 Image Chart
1999 8 21 00 31.1 169.9 1004 45 3 Image Chart
1999 8 21 06 31.4 168.3 1000 50 4 Image Chart
1999 8 21 12 31.8 166.7 1000 50 4 Image Chart
1999 8 21 18 32.2 165.3 1004 45 3 Image Chart
1999 8 22 00 32.6 163.8 1004 45 3 Image Chart
1999 8 22 06 33.2 162.3 1004 45 3 Image Chart
1999 8 22 12 33.9 161.1 1006 40 3 Image Chart
1999 8 22 18 34.6 159.9 1008 35 3 Image Chart
1999 8 23 00 35.5 158.5 1010 0 2 Image Chart
1999 8 23 06 36.5 157.9 1012 0 2 Image Chart
1999 8 23 12 37.5 157.8 1014 0 2 Image Chart
1999 8 23 18 38.8 158.3 1012 0 2 Image Chart
1999 8 24 00 39.9 159.7 1014 0 2 Image Chart
1999 8 24 06 40.9 161.7 1014 0 2 Image Chart
1999 8 24 12 41.8 164.4 1014 0 2 Image Chart
1999 8 24 18 44.0 169.3 1012 0 6 Image Chart
1999 8 25 00 43.6 174.1 1012 0 6 Image Chart
1999 8 25 06 43.5 178.9 1012 0 6 Image Chart
1999 8 25 12 43.3 183.6 1012 0 6 Image Chart
Japan Meteorological Agency Best Track Data | Correction Date : 2013-11-22
< Typhoon 199911 1999 Season Typhoon 199913 >

Help